Time;durP1;ratioP1;P1;durP2;ratioP2;P2;SDS_P1;SDS_P2;PMS_P1;PMS_P2;Temp;Humidity;BMP_temperature;BMP_pressure;BME280_temperature;BME280_humidity;BME280_pressure;Samples;Min_cycle;Max_cycle;Signal;HPM_P1;HPM_P2
2021/04/09 00:01:43;;;;;;;7.70;4.80;;;1.50;97.30;;;;;;5013242;28;20550;-84
2021/04/09 00:04:11;;;;;;;6.87;4.80;;;1.40;97.30;;;;;;5012680;28;20173;-84
2021/04/09 00:06:37;;;;;;;13.70;5.13;;;1.40;97.30;;;;;;5012955;28;20432;-84
2021/04/09 00:09:05;;;;;;;9.30;5.37;;;1.40;97.30;;;;;;5013935;28;20806;-83
2021/04/09 00:11:31;;;;;;;13.77;5.87;;;1.40;97.30;;;;;;5012171;28;20177;-84
2021/04/09 00:13:56;;;;;;;12.57;5.30;;;1.40;97.30;;;;;;5003053;28;20424;-83
2021/04/09 00:16:22;;;;;;;11.63;4.73;;;1.30;97.30;;;;;;4993129;28;20469;-83
2021/04/09 00:18:47;;;;;;;7.93;4.57;;;1.40;97.30;;;;;;4993206;28;20178;-83
2021/04/09 00:21:13;;;;;;;10.57;5.07;;;1.40;97.30;;;;;;4994583;28;20210;-83
2021/04/09 00:23:39;;;;;;;7.57;5.20;;;1.30;97.30;;;;;;4993511;28;20180;-83
2021/04/09 00:26:05;;;;;;;13.80;5.03;;;1.30;97.30;;;;;;4992672;28;20212;-83
2021/04/09 00:28:30;;;;;;;7.80;4.50;;;1.30;97.30;;;;;;4994542;28;20178;-85
2021/04/09 00:30:56;;;;;;;6.80;4.63;;;1.30;97.30;;;;;;4993085;28;20940;-85
2021/04/09 00:33:22;;;;;;;8.53;4.63;;;1.30;97.30;;;;;;4994199;28;20216;-85
2021/04/09 00:35:47;;;;;;;11.63;4.93;;;1.30;97.30;;;;;;4992806;28;20228;-85
2021/04/09 00:38:13;;;;;;;8.30;4.37;;;1.30;97.30;;;;;;4994730;28;20185;-85
2021/04/09 00:40:40;;;;;;;6.20;4.40;;;1.30;97.30;;;;;;4994253;28;20759;-85
2021/04/09 00:43:07;;;;;;;12.30;5.90;;;1.40;97.30;;;;;;4994252;28;20481;-85
2021/04/09 00:45:35;;;;;;;8.00;4.80;;;1.40;97.30;;;;;;4994180;28;20975;-85
2021/04/09 00:48:00;;;;;;;14.43;6.00;;;1.40;97.30;;;;;;4994491;28;20420;-85
2021/04/09 00:50:26;;;;;;;8.67;4.87;;;1.30;97.30;;;;;;4994783;28;20454;-85
2021/04/09 00:52:53;;;;;;;9.83;4.67;;;1.40;97.30;;;;;;4995180;28;20269;-85
2021/04/09 00:55:19;;;;;;;11.20;5.57;;;1.40;97.30;;;;;;4994849;28;20465;-85
2021/04/09 00:57:47;;;;;;;12.70;5.57;;;1.50;97.30;;;;;;4994664;28;20461;-85
2021/04/09 01:00:13;;;;;;;11.50;4.47;;;1.50;97.30;;;;;;4994262;28;20267;-85
2021/04/09 01:02:39;;;;;;;8.27;5.10;;;1.50;97.30;;;;;;4994449;28;20915;-84
2021/04/09 01:05:15;;;;;;;8.60;5.50;;;1.60;97.30;;;;;;4994263;28;20443;-85
2021/04/09 01:07:43;;;;;;;12.17;5.10;;;1.50;97.30;;;;;;4994667;28;20437;-85
2021/04/09 01:10:10;;;;;;;9.60;5.13;;;1.50;97.30;;;;;;5012215;28;20506;-85
2021/04/09 01:12:36;;;;;;;10.93;4.90;;;1.50;97.30;;;;;;5013578;28;20477;-85
2021/04/09 01:15:04;;;;;;;13.63;5.57;;;1.40;97.30;;;;;;5012249;28;20550;-85
2021/04/09 01:17:52;;;;;;;9.90;5.30;;;1.40;97.30;;;;;;5012814;28;20471;-85
2021/04/09 01:20:39;;;;;;;10.13;4.80;;;1.30;97.30;;;;;;5013103;28;20495;-85
2021/04/09 01:23:30;;;;;;;7.47;4.83;;;1.30;97.30;;;;;;5012927;28;20825;-84
2021/04/09 01:25:58;;;;;;;7.27;4.90;;;1.20;97.30;;;;;;4993103;28;20444;-85
2021/04/09 01:28:29;;;;;;;11.50;5.77;;;1.10;97.30;;;;;;4993202;28;20443;-84
2021/04/09 01:31:22;;;;;;;8.03;4.70;;;1.10;97.30;;;;;;4993454;28;20460;-83
2021/04/09 01:33:53;;;;;;;9.50;5.73;;;1.00;97.30;;;;;;4996153;28;20463;-86
2021/04/09 01:36:26;;;;;;;10.13;5.30;;;1.00;97.30;;;;;;5004334;28;20444;-83
2021/04/09 01:39:10;;;;;;;11.20;5.13;;;0.90;97.30;;;;;;5003024;28;20557;-84
2021/04/09 01:41:39;;;;;;;8.77;5.20;;;0.90;97.30;;;;;;4998566;28;20452;-83
2021/04/09 01:44:09;;;;;;;16.80;5.73;;;0.90;97.30;;;;;;4993444;28;20431;-84
2021/04/09 01:46:38;;;;;;;12.43;6.40;;;0.80;97.30;;;;;;4992833;28;20471;-83
2021/04/09 01:49:04;;;;;;;10.73;5.70;;;0.80;97.30;;;;;;4992291;28;20413;-86
2021/04/09 01:51:32;;;;;;;13.57;6.80;;;0.80;97.30;;;;;;4992288;28;20964;-85
2021/04/09 01:53:58;;;;;;;10.83;5.80;;;0.80;97.30;;;;;;4992114;28;20428;-85
2021/04/09 01:56:27;;;;;;;9.60;5.70;;;0.80;97.30;;;;;;4991970;28;20452;-85
2021/04/09 01:58:54;;;;;;;10.77;5.77;;;0.80;97.30;;;;;;4992271;28;20421;-85
2021/04/09 02:01:20;;;;;;;12.43;6.17;;;0.90;97.30;;;;;;4992036;28;20550;-85
2021/04/09 02:03:52;;;;;;;10.90;5.80;;;0.90;97.30;;;;;;4991945;28;20854;-86
2021/04/09 02:06:18;;;;;;;10.67;5.20;;;1.00;97.30;;;;;;4992256;28;20468;-85
2021/04/09 02:08:44;;;;;;;11.40;5.60;;;0.90;97.30;;;;;;4992280;28;20463;-85
2021/04/09 02:11:11;;;;;;;10.70;5.87;;;0.90;97.30;;;;;;4993460;28;20511;-85
2021/04/09 02:13:38;;;;;;;8.33;6.00;;;1.00;97.30;;;;;;4993559;28;20427;-83
2021/04/09 02:16:04;;;;;;;15.67;5.73;;;1.00;97.30;;;;;;5020221;23;20499;-89
2021/04/09 02:18:30;;;;;;;10.30;5.40;;;1.00;97.30;;;;;;5009192;28;20451;-88
2021/04/09 02:20:58;;;;;;;11.80;5.47;;;1.00;97.30;;;;;;5010245;28;20468;-88
2021/04/09 02:23:24;;;;;;;8.30;5.50;;;1.00;97.30;;;;;;5010175;28;20182;-88
2021/04/09 02:25:49;;;;;;;13.87;5.53;;;1.00;97.30;;;;;;5010360;28;20508;-89
2021/04/09 02:28:16;;;;;;;10.17;5.17;;;1.10;97.30;;;;;;4997029;28;20413;-88
2021/04/09 02:30:42;;;;;;;12.17;5.30;;;1.10;97.30;;;;;;5005868;28;20173;-90
2021/04/09 02:33:07;;;;;;;11.80;6.30;;;1.20;97.30;;;;;;5011308;28;20439;-88
2021/04/09 02:35:33;;;;;;;9.53;5.37;;;1.20;97.30;;;;;;5003216;28;20205;-88
2021/04/09 02:37:59;;;;;;;10.20;6.03;;;1.30;97.30;;;;;;4997373;28;20236;-88
2021/04/09 02:40:31;;;;;;;12.00;5.50;;;1.30;97.30;;;;;;4997099;28;20208;-88
2021/04/09 02:42:57;;;;;;;10.60;6.00;;;1.40;97.30;;;;;;4997351;28;20421;-90
2021/04/09 02:45:24;;;;;;;11.57;5.43;;;1.40;97.30;;;;;;4996856;28;20413;-88
2021/04/09 02:47:51;;;;;;;10.90;5.43;;;1.50;97.30;;;;;;5010226;28;20185;-88
2021/04/09 02:50:30;;;;;;;11.13;5.57;;;1.60;97.30;;;;;;5015901;28;20428;-88
2021/04/09 02:53:07;;;;;;;8.20;5.40;;;1.60;97.30;;;;;;5015280;28;20481;-88
2021/04/09 02:55:37;;;;;;;10.17;6.00;;;1.70;97.30;;;;;;5014872;28;20447;-88
2021/04/09 02:58:06;;;;;;;10.50;5.50;;;1.70;96.90;;;;;;5016401;28;20918;-87
2021/04/09 03:00:32;;;;;;;6.90;5.20;;;1.70;96.80;;;;;;5015506;28;20605;-89
2021/04/09 03:03:00;;;;;;;14.83;5.93;;;1.80;96.70;;;;;;5015503;28;20424;-90
2021/04/09 03:05:26;;;;;;;14.30;6.17;;;1.80;96.70;;;;;;5015120;28;20442;-88
2021/04/09 03:07:52;;;;;;;10.57;6.00;;;1.80;96.60;;;;;;5015599;28;20415;-88
2021/04/09 03:10:19;;;;;;;11.60;6.33;;;1.80;96.60;;;;;;4996340;28;20497;-88
2021/04/09 03:12:45;;;;;;;11.43;6.57;;;1.80;96.40;;;;;;4995964;28;20425;-88
2021/04/09 03:15:23;;;;;;;11.27;5.90;;;1.80;96.50;;;;;;4995845;28;20425;-88
2021/04/09 03:17:56;;;;;;;7.73;5.63;;;1.90;96.40;;;;;;4996437;28;20804;-88
2021/04/09 03:20:22;;;;;;;12.83;6.67;;;1.90;96.10;;;;;;4996072;28;20518;-88
2021/04/09 03:22:48;;;;;;;11.27;6.30;;;1.90;96.00;;;;;;4994794;28;20421;-88
2021/04/09 03:25:14;;;;;;;10.53;6.90;;;2.00;96.00;;;;;;4995076;28;20173;-89
2021/04/09 03:27:40;;;;;;;18.50;8.20;;;2.00;95.70;;;;;;4996373;28;20230;-89
2021/04/09 03:30:06;;;;;;;13.37;7.03;;;2.10;95.70;;;;;;5002492;28;20925;-88
2021/04/09 03:32:32;;;;;;;8.90;5.70;;;2.10;95.60;;;;;;4997260;28;20182;-88
2021/04/09 03:34:57;;;;;;;12.53;6.97;;;2.10;95.30;;;;;;4996200;28;20803;-89
2021/04/09 03:37:23;;;;;;;11.33;6.03;;;2.10;95.10;;;;;;4995454;28;20212;-89
2021/04/09 03:39:49;;;;;;;10.77;5.93;;;2.20;95.10;;;;;;4996478;28;20205;-89
2021/04/09 03:42:14;;;;;;;13.50;6.70;;;2.20;95.10;;;;;;4995439;28;20181;-88
2021/04/09 03:44:40;;;;;;;7.50;5.60;;;2.20;95.10;;;;;;4995054;28;20645;-89
2021/04/09 03:47:05;;;;;;;12.77;6.00;;;2.10;95.10;;;;;;5003694;28;20188;-89
2021/04/09 03:49:31;;;;;;;12.63;6.27;;;2.10;95.00;;;;;;5015003;28;20177;-90
2021/04/09 03:51:57;;;;;;;10.03;5.70;;;2.20;94.90;;;;;;5014926;28;20197;-89
2021/04/09 03:54:23;;;;;;;10.47;6.50;;;2.20;94.90;;;;;;5016752;28;20201;-89
2021/04/09 03:56:48;;;;;;;10.60;6.73;;;2.10;95.00;;;;;;5017008;28;20787;-88
2021/04/09 03:59:14;;;;;;;16.13;7.40;;;2.10;95.00;;;;;;5018181;28;20204;-90
2021/04/09 04:01:40;;;;;;;17.03;7.27;;;2.10;95.10;;;;;;5017081;28;20486;-92
2021/04/09 04:04:05;;;;;;;9.97;6.50;;;2.10;95.20;;;;;;5017168;28;20181;-89
2021/04/09 04:06:31;;;;;;;11.03;6.40;;;2.10;95.30;;;;;;5016567;28;20690;-89
2021/04/09 04:08:57;;;;;;;9.13;5.17;;;2.10;95.20;;;;;;5009196;28;20181;-90
2021/04/09 04:11:23;;;;;;;14.97;6.50;;;2.10;95.00;;;;;;4997425;28;20320;-89
2021/04/09 04:13:48;;;;;;;14.10;7.03;;;2.10;94.90;;;;;;4996811;28;20281;-89
2021/04/09 04:16:14;;;;;;;10.80;6.13;;;2.10;95.10;;;;;;4997694;28;20346;-89
2021/04/09 04:18:39;;;;;;;11.30;6.20;;;2.10;95.20;;;;;;4996656;28;20186;-89
2021/04/09 04:21:05;;;;;;;14.13;6.50;;;2.00;95.30;;;;;;4996210;28;20739;-90
2021/04/09 04:23:31;;;;;;;11.00;6.30;;;2.00;95.50;;;;;;4996899;28;20178;-89
2021/04/09 04:25:56;;;;;;;12.17;6.77;;;2.00;95.50;;;;;;5001960;28;20654;-89
2021/04/09 04:28:27;;;;;;;13.97;6.43;;;2.00;95.50;;;;;;4996272;28;20227;-89
2021/04/09 04:30:53;;;;;;;9.67;5.63;;;2.00;95.40;;;;;;4995992;28;20568;-88
2021/04/09 04:33:19;;;;;;;12.93;6.50;;;2.10;95.30;;;;;;4995182;28;20951;-89
2021/04/09 04:35:45;;;;;;;17.80;7.13;;;2.10;95.30;;;;;;4995569;28;20447;-89
2021/04/09 04:38:11;;;;;;;13.33;6.00;;;2.10;95.20;;;;;;4995537;28;20479;-88
2021/04/09 04:40:36;;;;;;;14.03;6.10;;;2.20;95.10;;;;;;5012292;28;20464;-89
2021/04/09 04:43:02;;;;;;;12.80;6.40;;;2.20;95.10;;;;;;5010800;28;20482;-88
2021/04/09 04:45:28;;;;;;;12.40;6.33;;;2.20;95.00;;;;;;5007101;28;20212;-88
2021/04/09 04:47:53;;;;;;;10.97;6.87;;;2.20;95.00;;;;;;5000848;28;20528;-89
2021/04/09 04:50:19;;;;;;;11.60;5.70;;;2.20;94.90;;;;;;4995821;28;20191;-88
2021/04/09 04:52:44;;;;;;;13.23;6.40;;;2.20;94.80;;;;;;4998414;28;20224;-88
2021/04/09 04:55:11;;;;;;;12.70;6.50;;;2.20;94.80;;;;;;4996238;28;20185;-88
2021/04/09 04:57:36;;;;;;;13.97;7.00;;;2.20;94.80;;;;;;4997414;28;20189;-89
2021/04/09 05:00:03;;;;;;;13.40;7.23;;;2.20;94.90;;;;;;4996658;28;20465;-90
2021/04/09 05:02:29;;;;;;;15.17;6.50;;;2.30;94.70;;;;;;4993927;28;20592;-89
2021/04/09 05:04:55;;;;;;;12.17;6.30;;;2.30;94.60;;;;;;4994525;28;20471;-89
2021/04/09 05:07:22;;;;;;;13.30;8.00;;;2.40;94.60;;;;;;5009947;28;20202;-90
2021/04/09 05:09:48;;;;;;;15.13;6.30;;;2.40;94.50;;;;;;5008207;28;20189;-89
2021/04/09 05:12:16;;;;;;;16.77;5.80;;;2.40;94.60;;;;;;5013522;28;20440;-88
2021/04/09 05:14:44;;;;;;;12.10;5.77;;;2.40;94.50;;;;;;4991114;28;20606;-89
2021/04/09 05:17:11;;;;;;;10.27;6.37;;;2.40;94.40;;;;;;5013711;23;20513;-74
2021/04/09 05:19:36;;;;;;;11.90;6.00;;;2.50;94.50;;;;;;5011995;28;20413;-74
2021/04/09 05:22:02;;;;;;;13.20;6.93;;;2.50;94.30;;;;;;4994288;28;20840;-74
2021/04/09 05:24:28;;;;;;;12.10;6.00;;;2.50;94.50;;;;;;5001570;28;20177;-74
2021/04/09 05:26:54;;;;;;;12.67;6.10;;;2.60;94.10;;;;;;5004361;28;20180;-75
2021/04/09 05:29:20;;;;;;;11.87;6.60;;;2.60;93.90;;;;;;5000948;28;20408;-74
2021/04/09 05:31:46;;;;;;;9.70;6.20;;;2.70;93.80;;;;;;4990711;28;20300;-75
2021/04/09 05:34:14;;;;;;;11.93;7.33;;;2.80;93.50;;;;;;4995540;28;20425;-74
2021/04/09 05:36:40;;;;;;;14.07;6.10;;;2.80;93.80;;;;;;5003531;28;20205;-75
2021/04/09 05:39:06;;;;;;;10.70;5.77;;;2.90;93.50;;;;;;5004073;28;20428;-74
2021/04/09 05:41:32;;;;;;;12.90;7.10;;;3.00;93.10;;;;;;4990056;28;21085;-74
2021/04/09 05:43:58;;;;;;;12.57;6.70;;;3.10;93.00;;;;;;5010267;28;20252;-75
2021/04/09 05:46:24;;;;;;;11.03;5.73;;;3.10;92.80;;;;;;5009344;28;20169;-75
2021/04/09 05:48:50;;;;;;;14.30;6.10;;;3.20;92.50;;;;;;5009247;28;20981;-75
2021/04/09 05:51:15;;;;;;;12.53;6.47;;;3.20;92.50;;;;;;5010033;28;20252;-76
2021/04/09 05:53:42;;;;;;;9.43;6.53;;;3.30;92.50;;;;;;5009989;28;20181;-74
2021/04/09 05:56:08;;;;;;;15.40;6.93;;;3.30;92.30;;;;;;5009385;28;20200;-75
2021/04/09 05:58:35;;;;;;;9.90;6.10;;;3.30;92.10;;;;;;5009445;28;20850;-75
2021/04/09 06:01:01;;;;;;;13.43;6.00;;;3.40;92.20;;;;;;5009997;28;20212;-75
2021/04/09 06:03:27;;;;;;;12.53;7.27;;;3.40;92.10;;;;;;5015226;28;20645;-74
2021/04/09 06:05:53;;;;;;;14.57;6.70;;;3.50;92.00;;;;;;5013566;28;20752;-74
2021/04/09 06:08:18;;;;;;;11.67;6.67;;;3.60;92.20;;;;;;5012153;28;20185;-75
2021/04/09 06:10:44;;;;;;;13.23;6.57;;;3.60;92.30;;;;;;5002991;28;20205;-74
2021/04/09 06:13:10;;;;;;;15.30;6.30;;;3.70;91.80;;;;;;4995102;28;20569;-74
2021/04/09 06:15:35;;;;;;;16.13;6.97;;;3.80;91.70;;;;;;4994403;28;20265;-74
2021/04/09 06:18:01;;;;;;;10.20;6.50;;;3.90;91.30;;;;;;4999393;28;20196;-75
2021/04/09 06:20:27;;;;;;;12.57;6.60;;;4.00;91.10;;;;;;5002529;28;20267;-75
2021/04/09 06:22:53;;;;;;;12.60;6.37;;;4.10;90.80;;;;;;4994272;28;20265;-75
2021/04/09 06:25:20;;;;;;;12.97;6.57;;;4.20;90.70;;;;;;4995178;28;20262;-75
2021/04/09 06:27:45;;;;;;;17.97;6.50;;;4.40;90.30;;;;;;4993877;28;20522;-74
2021/04/09 06:30:12;;;;;;;22.73;6.83;;;4.50;90.30;;;;;;5005803;28;20947;-75
2021/04/09 06:32:37;;;;;;;9.17;6.27;;;4.70;90.10;;;;;;5010168;28;20818;-75
2021/04/09 06:35:04;;;;;;;16.97;7.47;;;4.80;89.30;;;;;;5013851;28;20447;-73
2021/04/09 06:37:30;;;;;;;10.40;6.13;;;4.90;89.20;;;;;;5014064;28;20169;-74
2021/04/09 06:39:55;;;;;;;10.30;6.83;;;5.10;89.00;;;;;;5004318;28;20460;-74
2021/04/09 06:42:21;;;;;;;10.93;6.17;;;5.20;88.60;;;;;;5002011;28;20861;-74
2021/04/09 06:44:48;;;;;;;10.87;5.87;;;5.40;88.30;;;;;;5001714;28;20181;-74
2021/04/09 06:47:13;;;;;;;24.80;7.77;;;5.60;87.80;;;;;;4993156;28;20170;-74
2021/04/09 06:49:42;;;;;;;14.33;7.60;;;5.80;87.90;;;;;;4993460;28;20432;-74
2021/04/09 06:52:15;;;;;;;11.20;6.97;;;6.00;87.90;;;;;;4993298;28;20225;-73
2021/04/09 06:54:42;;;;;;;11.70;6.83;;;6.20;87.00;;;;;;5003790;28;20417;-73
2021/04/09 06:57:12;;;;;;;11.40;6.00;;;6.50;86.30;;;;;;5008276;28;20404;-74
2021/04/09 06:59:42;;;;;;;13.77;6.73;;;6.70;86.50;;;;;;5009348;28;20416;-73
2021/04/09 07:02:16;;;;;;;13.40;7.23;;;6.80;85.10;;;;;;5013049;28;20431;-73
2021/04/09 07:04:43;;;;;;;13.53;6.93;;;6.90;85.10;;;;;;5013074;28;21383;-73
2021/04/09 07:07:11;;;;;;;14.23;7.77;;;7.00;85.00;;;;;;5014258;28;20487;-72
2021/04/09 07:09:36;;;;;;;15.63;6.33;;;7.00;84.50;;;;;;5012639;28;20412;-73
2021/04/09 07:12:04;;;;;;;11.40;6.20;;;7.10;84.70;;;;;;5012529;28;20440;-73
2021/04/09 07:14:49;;;;;;;11.90;6.67;;;7.30;84.70;;;;;;5013428;28;20795;-73
2021/04/09 07:17:24;;;;;;;9.10;6.03;;;7.40;84.10;;;;;;5013712;28;20471;-73
2021/04/09 07:19:50;;;;;;;14.97;6.83;;;7.50;83.80;;;;;;5012718;28;20911;-74
2021/04/09 07:22:27;;;;;;;11.60;6.70;;;7.50;83.20;;;;;;5011948;28;20444;-73
2021/04/09 07:25:10;;;;;;;13.73;7.43;;;7.60;83.60;;;;;;5012526;28;20419;-73
2021/04/09 07:27:37;;;;;;;12.43;6.53;;;7.80;83.60;;;;;;5012557;28;21025;-73
2021/04/09 07:30:05;;;;;;;15.17;6.40;;;8.00;83.70;;;;;;5013512;28;20792;-73
2021/04/09 07:32:32;;;;;;;13.17;6.37;;;8.20;82.40;;;;;;5012447;28;20432;-73
2021/04/09 07:35:03;;;;;;;11.13;6.60;;;8.20;81.90;;;;;;5012141;28;20416;-73
2021/04/09 07:37:31;;;;;;;11.60;6.03;;;8.30;81.50;;;;;;5012574;28;20416;-73
2021/04/09 07:39:59;;;;;;;12.80;6.77;;;8.40;81.20;;;;;;5008165;28;20451;-73
2021/04/09 07:42:33;;;;;;;14.73;6.73;;;8.30;81.10;;;;;;5006388;28;20851;-74
2021/04/09 07:45:01;;;;;;;14.93;6.67;;;8.30;81.50;;;;;;5009598;28;20465;-75
2021/04/09 07:47:28;;;;;;;15.10;6.90;;;8.40;82.00;;;;;;5000480;28;20417;-75
2021/04/09 07:50:01;;;;;;;10.80;5.90;;;8.50;81.40;;;;;;5003104;28;20424;-75
2021/04/09 07:52:38;;;;;;;15.07;6.50;;;8.40;81.20;;;;;;5002556;28;20427;-75
2021/04/09 07:55:12;;;;;;;9.93;6.33;;;8.40;81.10;;;;;;5001472;28;20919;-75
2021/04/09 07:57:38;;;;;;;10.83;6.43;;;8.40;81.00;;;;;;5004711;28;20502;-75
2021/04/09 08:00:22;;;;;;;12.57;6.43;;;8.50;81.40;;;;;;5011330;28;20524;-75
2021/04/09 08:02:50;;;;;;;11.57;6.23;;;8.60;81.20;;;;;;5013207;28;20243;-75
2021/04/09 08:05:17;;;;;;;11.53;6.57;;;8.70;81.10;;;;;;5013163;28;20410;-75
2021/04/09 08:07:43;;;;;;;15.80;6.70;;;8.90;81.10;;;;;;5011900;28;20426;-75
2021/04/09 08:10:13;;;;;;;15.37;6.73;;;9.20;80.70;;;;;;5008477;28;20424;-74
2021/04/09 08:12:40;;;;;;;14.30;6.60;;;9.20;80.50;;;;;;5011555;28;20200;-76
2021/04/09 08:15:24;;;;;;;13.03;7.03;;;9.30;80.10;;;;;;5011802;28;20424;-74
2021/04/09 08:18:06;;;;;;;13.20;6.57;;;9.20;79.30;;;;;;5023191;23;20499;-71
2021/04/09 08:20:34;;;;;;;13.30;6.73;;;9.30;80.30;;;;;;4994642;28;20448;-71
2021/04/09 08:23:12;;;;;;;15.10;6.50;;;9.40;79.80;;;;;;4993761;28;20428;-74
2021/04/09 08:25:39;;;;;;;12.60;6.33;;;9.40;79.50;;;;;;4991033;28;20505;-72
2021/04/09 08:28:07;;;;;;;11.70;6.93;;;9.40;79.10;;;;;;4992876;28;20405;-72
2021/04/09 08:30:35;;;;;;;11.37;6.70;;;9.50;79.40;;;;;;4991111;28;20484;-72
2021/04/09 08:33:02;;;;;;;11.47;7.20;;;9.60;79.10;;;;;;4991135;28;20432;-72
2021/04/09 08:35:28;;;;;;;16.00;6.63;;;9.90;79.40;;;;;;4991556;28;20775;-73
2021/04/09 08:37:55;;;;;;;12.90;6.40;;;10.00;78.50;;;;;;4999286;28;20467;-73
2021/04/09 08:40:22;;;;;;;13.07;6.60;;;10.10;78.50;;;;;;5001742;28;20452;-73
2021/04/09 08:42:48;;;;;;;14.17;6.37;;;10.00;77.60;;;;;;5001343;28;21012;-73
2021/04/09 08:45:15;;;;;;;10.00;6.03;;;10.00;78.40;;;;;;5006325;28;20427;-72
2021/04/09 08:47:42;;;;;;;13.87;6.60;;;9.80;77.80;;;;;;5010692;28;20499;-73
2021/04/09 08:50:11;;;;;;;12.97;7.00;;;9.90;78.50;;;;;;5007672;28;20427;-73
2021/04/09 08:52:42;;;;;;;11.70;7.07;;;10.10;78.50;;;;;;5008357;28;20972;-72
2021/04/09 08:55:10;;;;;;;16.17;6.90;;;10.10;78.30;;;;;;5010545;28;20411;-73
2021/04/09 08:57:38;;;;;;;12.03;6.53;;;10.10;78.10;;;;;;5011059;28;20424;-72
2021/04/09 09:00:05;;;;;;;13.43;7.20;;;10.00;78.10;;;;;;5009863;28;20448;-72
2021/04/09 09:02:43;;;;;;;13.90;8.10;;;10.00;78.10;;;;;;5009446;28;20433;-73
2021/04/09 09:05:27;;;;;;;12.40;7.00;;;10.10;78.40;;;;;;5010669;28;20408;-73
2021/04/09 09:07:54;;;;;;;12.77;6.13;;;10.20;78.50;;;;;;5010839;28;20424;-73
2021/04/09 09:10:22;;;;;;;12.00;6.83;;;10.40;78.30;;;;;;5010672;28;20439;-74
2021/04/09 09:13:07;;;;;;;13.40;7.73;;;10.50;78.10;;;;;;5010850;28;20499;-73
2021/04/09 09:15:42;;;;;;;12.30;6.70;;;10.50;77.60;;;;;;5009591;28;20966;-73
2021/04/09 09:18:22;;;;;;;19.20;7.50;;;10.70;77.40;;;;;;5010618;28;20550;-73
2021/04/09 09:21:10;;;;;;;13.00;6.87;;;10.90;77.50;;;;;;5009073;28;20547;-75
2021/04/09 09:23:57;;;;;;;12.00;5.70;;;11.00;76.30;;;;;;5009220;28;20420;-76
2021/04/09 09:26:38;;;;;;;19.67;7.47;;;11.20;77.50;;;;;;5010698;28;20954;-73
2021/04/09 09:29:28;;;;;;;15.77;7.07;;;11.40;76.00;;;;;;5003955;28;20858;-73
2021/04/09 09:31:57;;;;;;;10.60;7.00;;;11.40;75.10;;;;;;5001693;28;21024;-74
2021/04/09 09:34:26;;;;;;;13.73;7.27;;;11.40;75.70;;;;;;5003822;28;21002;-74
2021/04/09 09:37:07;;;;;;;11.57;6.07;;;11.40;75.60;;;;;;5012298;28;20499;-73
2021/04/09 09:39:50;;;;;;;13.03;6.20;;;11.50;76.30;;;;;;5015329;28;20407;-73
2021/04/09 09:42:28;;;;;;;14.00;6.80;;;11.40;75.40;;;;;;5004375;28;20534;-75
2021/04/09 09:44:59;;;;;;;10.53;5.90;;;11.20;75.80;;;;;;5003346;28;20419;-74
2021/04/09 09:47:31;;;;;;;11.03;6.80;;;11.40;75.70;;;;;;5003156;28;20403;-74
2021/04/09 09:50:12;;;;;;;12.70;6.17;;;11.50;75.60;;;;;;5003608;28;20927;-74
2021/04/09 09:52:53;;;;;;;15.30;6.97;;;11.50;75.80;;;;;;5006128;28;20434;-73
2021/04/09 09:55:26;;;;;;;11.80;6.03;;;11.80;76.00;;;;;;5011315;28;20502;-74
2021/04/09 09:57:55;;;;;;;10.40;6.30;;;11.90;75.90;;;;;;5001976;28;20843;-74
2021/04/09 10:00:31;;;;;;;10.07;5.83;;;11.80;74.80;;;;;;5002535;28;20452;-74
2021/04/09 10:03:23;;;;;;;13.53;6.20;;;11.80;75.70;;;;;;5013604;28;20922;-74
2021/04/09 10:06:02;;;;;;;12.60;6.70;;;11.90;75.10;;;;;;5013979;28;20415;-74
2021/04/09 10:08:31;;;;;;;14.47;6.40;;;11.90;75.20;;;;;;5009699;28;20989;-75
2021/04/09 10:11:03;;;;;;;12.70;5.80;;;12.00;75.10;;;;;;5008364;28;20451;-72
2021/04/09 10:13:30;;;;;;;8.87;5.27;;;12.40;75.50;;;;;;4993555;28;20827;-74
2021/04/09 10:16:22;;;;;;;8.13;5.73;;;12.50;73.30;;;;;;4994098;28;20950;-73
2021/04/09 10:19:04;;;;;;;14.53;5.80;;;12.80;72.60;;;;;;4993901;28;20461;-73
2021/04/09 10:21:36;;;;;;;14.00;6.50;;;13.00;72.10;;;;;;4993666;28;20468;-75
2021/04/09 10:24:08;;;;;;;10.77;6.17;;;12.90;72.50;;;;;;4994839;28;20471;-72
2021/04/09 10:26:58;;;;;;;14.13;6.97;;;12.70;72.20;;;;;;4993314;28;20471;-73
2021/04/09 10:29:29;;;;;;;9.47;6.07;;;12.60;72.60;;;;;;4993492;28;20448;-73
2021/04/09 10:31:57;;;;;;;10.00;6.27;;;12.80;72.90;;;;;;4994285;28;20456;-74
2021/04/09 10:34:26;;;;;;;13.03;6.40;;;13.00;72.70;;;;;;4993865;28;20781;-74
2021/04/09 10:36:52;;;;;;;10.90;6.10;;;13.10;72.50;;;;;;4993681;28;20487;-74
2021/04/09 10:39:20;;;;;;;10.63;6.73;;;13.20;73.00;;;;;;4993336;28;20439;-74
2021/04/09 10:41:51;;;;;;;16.20;6.53;;;13.20;72.30;;;;;;4993912;28;20548;-72
2021/04/09 10:44:20;;;;;;;16.90;7.00;;;13.20;72.00;;;;;;4993397;28;20785;-75
2021/04/09 10:46:49;;;;;;;10.77;6.17;;;13.10;71.70;;;;;;4993221;28;20474;-73
2021/04/09 10:49:17;;;;;;;9.03;5.47;;;13.10;72.20;;;;;;4994891;28;20456;-75
2021/04/09 10:51:52;;;;;;;10.77;5.73;;;13.30;72.20;;;;;;4993217;28;20541;-73
2021/04/09 10:54:21;;;;;;;9.57;5.73;;;13.40;71.60;;;;;;4992976;28;20420;-73
2021/04/09 10:56:59;;;;;;;9.90;6.10;;;13.30;71.40;;;;;;4993478;28;20421;-74
2021/04/09 10:59:26;;;;;;;10.40;5.90;;;13.40;72.30;;;;;;4998645;28;20427;-75
2021/04/09 11:01:52;;;;;;;13.80;6.43;;;13.50;71.40;;;;;;5003031;28;20459;-74
2021/04/09 11:04:18;;;;;;;13.50;6.33;;;13.50;71.20;;;;;;5006033;28;20925;-77
2021/04/09 11:06:53;;;;;;;14.27;6.50;;;13.70;71.90;;;;;;4994730;28;20489;-75
2021/04/09 11:09:19;;;;;;;12.70;6.23;;;13.60;71.10;;;;;;5002689;28;20515;-75
2021/04/09 11:11:45;;;;;;;13.73;6.00;;;13.50;71.30;;;;;;5003723;28;20457;-74
2021/04/09 11:14:15;;;;;;;9.60;6.03;;;13.50;71.30;;;;;;4991426;28;20415;-74
2021/04/09 11:16:50;;;;;;;13.17;6.70;;;13.30;71.10;;;;;;4992443;28;20461;-74
2021/04/09 11:19:24;;;;;;;13.17;6.47;;;13.50;71.80;;;;;;5008524;28;20508;-74
2021/04/09 11:21:55;;;;;;;14.33;6.90;;;13.30;70.70;;;;;;4993135;28;20460;-74
2021/04/09 11:24:30;;;;;;;11.63;6.43;;;13.50;71.60;;;;;;4992112;28;21027;-74
2021/04/09 11:26:58;;;;;;;7.90;5.27;;;13.60;71.40;;;;;;4992492;28;20499;-75
2021/04/09 11:29:30;;;;;;;10.33;6.30;;;13.80;71.60;;;;;;4992158;28;20572;-75
2021/04/09 11:32:13;;;;;;;11.73;6.00;;;13.70;70.40;;;;;;4992186;28;21007;-75
2021/04/09 11:34:41;;;;;;;10.00;6.33;;;13.70;70.40;;;;;;4992210;28;20513;-75
2021/04/09 11:37:08;;;;;;;10.77;5.80;;;13.60;71.00;;;;;;4993179;28;20448;-76
2021/04/09 11:39:34;;;;;;;17.10;6.57;;;13.60;71.20;;;;;;4992222;28;20749;-76
2021/04/09 11:42:02;;;;;;;11.37;5.43;;;13.70;71.00;;;;;;4991798;28;20512;-74
2021/04/09 11:44:33;;;;;;;10.10;6.30;;;13.80;71.00;;;;;;4991728;28;20178;-75
2021/04/09 11:47:22;;;;;;;9.53;6.40;;;13.90;70.60;;;;;;5010115;28;20432;-72
2021/04/09 11:50:11;;;;;;;11.60;5.63;;;14.00;70.50;;;;;;5003266;28;20967;-73
2021/04/09 11:53:01;;;;;;;10.03;5.43;;;14.20;70.40;;;;;;5009534;28;20483;-75
2021/04/09 11:55:32;;;;;;;12.83;6.90;;;14.10;70.10;;;;;;5008753;28;20986;-73
2021/04/09 11:57:58;;;;;;;11.70;6.27;;;14.00;70.60;;;;;;5010872;28;20427;-74
2021/04/09 12:00:25;;;;;;;12.77;6.77;;;14.10;71.20;;;;;;5010361;28;20464;-74
2021/04/09 12:02:57;;;;;;;10.97;6.13;;;14.00;70.50;;;;;;5011245;28;20447;-73
2021/04/09 12:05:29;;;;;;;12.63;6.53;;;14.10;70.20;;;;;;5011061;28;20429;-74
2021/04/09 12:08:00;;;;;;;10.30;6.60;;;14.10;70.50;;;;;;5010899;28;20412;-74
2021/04/09 12:10:27;;;;;;;12.60;6.40;;;14.20;71.30;;;;;;5012375;28;20439;-74
2021/04/09 12:12:53;;;;;;;14.93;6.97;;;14.20;70.00;;;;;;5011937;28;20859;-73
2021/04/09 12:15:21;;;;;;;13.90;6.60;;;14.10;69.90;;;;;;5012381;28;20412;-74
2021/04/09 12:17:47;;;;;;;14.50;7.13;;;13.80;69.90;;;;;;5011101;28;20519;-74
2021/04/09 12:20:16;;;;;;;14.33;7.50;;;13.90;70.50;;;;;;5010879;28;20448;-73
2021/04/09 12:22:43;;;;;;;13.27;7.00;;;14.00;71.20;;;;;;5010621;28;20801;-73
2021/04/09 12:25:10;;;;;;;16.10;7.23;;;14.10;70.00;;;;;;5009755;28;20420;-74
2021/04/09 12:27:36;;;;;;;9.33;6.00;;;14.40;70.70;;;;;;5000227;28;20960;-74
2021/04/09 12:30:04;;;;;;;11.10;6.07;;;14.60;69.10;;;;;;4989336;28;20776;-74
2021/04/09 12:32:30;;;;;;;8.30;5.50;;;14.80;69.50;;;;;;4991826;28;20428;-73
2021/04/09 12:34:56;;;;;;;16.30;6.13;;;14.80;69.00;;;;;;4990634;28;20479;-74
2021/04/09 12:37:22;;;;;;;15.17;7.20;;;15.00;69.00;;;;;;5000256;28;20188;-74
2021/04/09 12:39:47;;;;;;;13.63;7.00;;;15.00;68.60;;;;;;5010415;28;20177;-74
2021/04/09 12:42:13;;;;;;;12.77;6.60;;;15.20;69.10;;;;;;5013183;28;20211;-73
2021/04/09 12:44:39;;;;;;;19.30;6.73;;;15.10;68.50;;;;;;5011630;28;20177;-74
2021/04/09 12:47:05;;;;;;;12.43;7.43;;;15.10;68.30;;;;;;5008393;28;20434;-73
2021/04/09 12:49:31;;;;;;;15.47;7.20;;;14.80;68.70;;;;;;4996589;28;20436;-72
2021/04/09 12:51:57;;;;;;;11.87;6.03;;;15.00;68.40;;;;;;5002347;28;20216;-74
2021/04/09 12:54:23;;;;;;;13.83;6.83;;;15.00;69.10;;;;;;5010079;28;20954;-74
2021/04/09 12:56:49;;;;;;;12.47;6.33;;;14.90;68.30;;;;;;5010784;28;20400;-73